createdAt,value
2023-03-27T00:02:08.967Z,99.90
2023-03-27T00:04:36.166Z,99.90
2023-03-27T00:07:03.521Z,99.90
2023-03-27T00:09:32.900Z,99.90
2023-03-27T00:12:01.072Z,99.90
2023-03-27T00:14:28.695Z,99.90
2023-03-27T00:16:57.381Z,99.90
2023-03-27T00:19:25.162Z,99.90
2023-03-27T00:21:53.373Z,99.90
2023-03-27T00:24:20.392Z,99.90
2023-03-27T00:26:47.598Z,99.90
2023-03-27T00:29:14.543Z,99.90
2023-03-27T00:31:41.598Z,99.90
2023-03-27T00:34:08.542Z,99.90
2023-03-27T00:36:35.468Z,99.90
2023-03-27T00:39:02.528Z,99.90
2023-03-27T00:41:29.637Z,99.90
2023-03-27T00:43:58.269Z,99.90
2023-03-27T00:46:35.086Z,99.90
2023-03-27T00:49:06.433Z,99.90
2023-03-27T00:51:35.875Z,99.90
2023-03-27T00:54:04.663Z,99.90
2023-03-27T00:56:33.856Z,99.90
2023-03-27T00:59:05.458Z,99.90
2023-03-27T01:01:32.655Z,99.90
2023-03-27T01:04:06.448Z,99.90
2023-03-27T01:06:33.752Z,99.90
2023-03-27T01:09:00.770Z,99.90
2023-03-27T01:12:09.200Z,99.90
2023-03-27T01:14:51.523Z,99.90
2023-03-27T01:18:02.665Z,99.90
2023-03-27T01:21:00.395Z,99.90
2023-03-27T01:23:59.870Z,99.90
2023-03-27T01:26:49.077Z,99.90
2023-03-27T01:29:46.953Z,99.90
2023-03-27T01:33:02.886Z,99.90
2023-03-27T01:35:55.913Z,99.90
2023-03-27T01:38:44.136Z,99.90
2023-03-27T01:41:29.944Z,99.90
2023-03-27T01:44:43.197Z,99.90
2023-03-27T01:47:21.683Z,99.90
2023-03-27T01:50:11.785Z,99.90
2023-03-27T01:52:44.040Z,99.90
2023-03-27T01:55:19.248Z,99.90
2023-03-27T01:57:52.210Z,99.90
2023-03-27T02:00:22.715Z,99.90
2023-03-27T02:03:11.683Z,99.90
2023-03-27T02:05:58.838Z,99.90
2023-03-27T02:08:49.416Z,99.90
2023-03-27T02:11:17.027Z,99.90
2023-03-27T02:13:57.756Z,99.90
2023-03-27T02:16:33.877Z,99.90
2023-03-27T02:19:11.875Z,99.90
2023-03-27T02:21:38.798Z,99.90
2023-03-27T02:24:06.372Z,99.90
2023-03-27T02:26:33.754Z,99.90
2023-03-27T02:29:48.026Z,99.90
2023-03-27T02:32:43.686Z,99.90
2023-03-27T02:35:43.055Z,99.90
2023-03-27T02:38:39.996Z,99.90
2023-03-27T02:41:29.922Z,99.90
2023-03-27T02:44:01.883Z,99.90
2023-03-27T02:46:31.860Z,99.90
2023-03-27T02:49:05.268Z,99.90
2023-03-27T02:51:45.729Z,99.90
2023-03-27T02:54:17.503Z,99.90
2023-03-27T02:56:52.011Z,99.90
2023-03-27T02:59:30.938Z,99.90
2023-03-27T03:01:58.837Z,99.90
2023-03-27T03:04:29.758Z,99.90
2023-03-27T03:06:57.100Z,99.90
2023-03-27T03:09:25.301Z,99.90
2023-03-27T03:11:53.927Z,99.90
2023-03-27T03:14:28.160Z,99.90
2023-03-27T03:16:55.785Z,99.90
2023-03-27T03:19:24.145Z,99.90
2023-03-27T03:21:51.276Z,99.90
2023-03-27T03:24:19.160Z,99.90
2023-03-27T03:26:50.218Z,99.90
2023-03-27T03:29:19.214Z,99.90
2023-03-27T03:31:46.355Z,99.90
2023-03-27T03:34:16.567Z,99.90
2023-03-27T03:36:49.430Z,99.90
2023-03-27T03:39:17.712Z,99.90
2023-03-27T03:41:44.745Z,99.90
2023-03-27T03:44:11.681Z,99.90
2023-03-27T03:46:39.234Z,99.90
2023-03-27T03:49:07.039Z,99.90
2023-03-27T03:51:35.488Z,99.90
2023-03-27T03:54:02.966Z,99.90
2023-03-27T03:56:31.032Z,99.90
2023-03-27T03:58:58.318Z,99.90
2023-03-27T04:01:26.223Z,99.90
2023-03-27T04:03:53.424Z,99.90
2023-03-27T04:06:21.857Z,99.90
2023-03-27T04:08:48.868Z,99.90
2023-03-27T04:11:15.893Z,99.90
2023-03-27T04:13:42.956Z,99.90
2023-03-27T04:16:10.524Z,99.90
2023-03-27T04:18:40.830Z,99.90
2023-03-27T04:21:14.870Z,99.90
2023-03-27T04:23:48.289Z,99.90
2023-03-27T04:26:16.243Z,99.90
2023-03-27T04:28:43.391Z,99.90
2023-03-27T04:31:11.014Z,99.90
2023-03-27T04:33:39.930Z,99.90
2023-03-27T04:36:09.005Z,99.90
2023-03-27T04:38:38.210Z,99.90
2023-03-27T04:41:06.371Z,99.90
2023-03-27T04:43:36.902Z,99.90
2023-03-27T04:46:07.944Z,99.90
2023-03-27T04:48:38.944Z,99.90
2023-03-27T04:51:06.992Z,99.90
2023-03-27T04:53:36.470Z,99.90
2023-03-27T04:56:04.040Z,99.90
2023-03-27T04:58:31.332Z,99.90
2023-03-27T05:00:58.501Z,99.90
2023-03-27T05:03:26.244Z,99.90
2023-03-27T05:05:53.865Z,99.90
2023-03-27T05:08:21.137Z,99.90
2023-03-27T05:10:48.122Z,99.90
2023-03-27T05:13:15.145Z,99.90
2023-03-27T05:15:42.175Z,99.90
2023-03-27T05:18:09.449Z,99.90
2023-03-27T05:20:37.185Z,99.90
2023-03-27T05:23:04.375Z,99.90
2023-03-27T05:25:32.914Z,99.90
2023-03-27T05:28:00.900Z,99.90
2023-03-27T05:30:28.968Z,99.90
2023-03-27T05:32:59.564Z,99.90
2023-03-27T05:35:28.722Z,99.90
2023-03-27T05:37:57.531Z,99.90
2023-03-27T05:40:25.835Z,99.90
2023-03-27T05:42:53.854Z,99.90
2023-03-27T05:45:21.829Z,99.90
2023-03-27T05:47:50.657Z,99.90
2023-03-27T05:50:20.357Z,99.90
2023-03-27T05:52:47.888Z,99.90
2023-03-27T05:55:15.235Z,99.90
2023-03-27T05:57:42.519Z,99.90
2023-03-27T06:00:14.039Z,99.90
2023-03-27T06:02:45.140Z,99.90
2023-03-27T06:05:16.772Z,99.90
2023-03-27T06:07:44.143Z,99.90
2023-03-27T06:10:14.409Z,99.90
2023-03-27T06:12:42.857Z,99.90
2023-03-27T06:15:11.122Z,99.90
2023-03-27T06:17:42.963Z,99.90
2023-03-27T06:20:15.298Z,99.90
2023-03-27T06:22:45.888Z,99.90
2023-03-27T06:25:13.639Z,99.90
2023-03-27T06:27:45.486Z,99.90
2023-03-27T06:30:14.371Z,99.90
2023-03-27T06:32:52.597Z,99.90
2023-03-27T06:35:20.210Z,99.90
2023-03-27T06:37:51.276Z,99.90
2023-03-27T06:40:22.899Z,99.90
2023-03-27T06:42:56.010Z,99.90
2023-03-27T06:45:24.849Z,99.90
2023-03-27T06:47:55.814Z,99.90
2023-03-27T06:50:27.735Z,99.90
2023-03-27T06:52:55.365Z,99.90
2023-03-27T06:55:23.909Z,99.90
2023-03-27T06:57:53.771Z,99.90
2023-03-27T07:00:24.635Z,99.90
2023-03-27T07:03:03.123Z,99.90
2023-03-27T07:05:33.832Z,99.90
2023-03-27T07:08:05.465Z,99.90
2023-03-27T07:10:42.093Z,99.90
2023-03-27T07:13:09.855Z,99.90
2023-03-27T07:15:37.288Z,99.90
2023-03-27T07:18:06.920Z,99.90
2023-03-27T07:20:34.941Z,99.90
2023-03-27T07:23:02.884Z,99.90
2023-03-27T07:25:37.583Z,99.90
2023-03-27T07:28:10.155Z,99.90
2023-03-27T07:30:37.805Z,99.90
2023-03-27T07:33:07.412Z,99.90
2023-03-27T07:35:34.494Z,99.90
2023-03-27T07:38:03.499Z,99.90
2023-03-27T07:40:40.036Z,99.90
2023-03-27T07:43:08.080Z,99.90
2023-03-27T07:45:35.937Z,99.90
2023-03-27T07:48:14.426Z,99.90
2023-03-27T07:50:42.345Z,99.90
2023-03-27T07:53:09.409Z,99.90
2023-03-27T07:55:41.903Z,99.90
2023-03-27T07:58:08.946Z,99.90
2023-03-27T08:00:36.435Z,99.90
2023-03-27T08:03:08.241Z,99.90
2023-03-27T08:05:36.121Z,99.90
2023-03-27T08:08:03.807Z,99.90
2023-03-27T08:10:30.917Z,99.90
2023-03-27T08:12:57.878Z,99.90
2023-03-27T08:15:25.385Z,99.90
2023-03-27T08:17:55.411Z,99.90
2023-03-27T08:20:24.107Z,99.90
2023-03-27T08:22:54.475Z,99.90
2023-03-27T08:25:24.679Z,99.90
2023-03-27T08:27:52.295Z,99.90
2023-03-27T08:30:20.364Z,99.90
2023-03-27T08:32:47.418Z,99.90
2023-03-27T08:35:14.512Z,99.90
2023-03-27T08:37:41.723Z,99.90
2023-03-27T08:40:19.785Z,99.90
2023-03-27T08:42:50.563Z,99.90
2023-03-27T08:45:28.275Z,99.90
2023-03-27T08:48:03.110Z,99.90
2023-03-27T08:50:38.689Z,99.90
2023-03-27T08:53:11.529Z,99.90
2023-03-27T08:55:43.840Z,99.90
2023-03-27T08:58:18.379Z,99.90
2023-03-27T09:00:59.859Z,99.90
2023-03-27T09:03:35.926Z,99.90
2023-03-27T09:06:21.804Z,99.90
2023-03-27T09:09:07.192Z,99.90
2023-03-27T09:12:01.740Z,99.90
2023-03-27T09:14:35.534Z,99.90
2023-03-27T09:17:23.257Z,99.90
2023-03-27T09:19:50.343Z,99.90
2023-03-27T09:22:29.953Z,99.90
2023-03-27T09:25:03.864Z,99.90
2023-03-27T09:27:34.411Z,99.90
2023-03-27T09:30:19.292Z,99.90
2023-03-27T09:32:48.773Z,99.90
2023-03-27T09:35:20.486Z,99.90
2023-03-27T09:37:56.747Z,99.90
2023-03-27T09:40:48.762Z,99.90
2023-03-27T09:43:23.788Z,99.90
2023-03-27T09:45:53.842Z,99.90
2023-03-27T09:48:43.744Z,99.90
2023-03-27T09:51:41.068Z,99.90
2023-03-27T09:54:09.157Z,99.90
2023-03-27T09:56:40.810Z,99.90
2023-03-27T09:59:24.319Z,99.90
2023-03-27T10:01:56.550Z,99.90
2023-03-27T10:04:25.913Z,99.90
2023-03-27T10:07:02.628Z,99.90
2023-03-27T10:09:35.294Z,99.90
2023-03-27T10:12:08.333Z,99.90
2023-03-27T10:14:44.495Z,97.60
2023-03-27T10:17:37.517Z,99.90
2023-03-27T10:20:11.331Z,99.20
2023-03-27T10:22:41.459Z,99.30
2023-03-27T10:25:21.213Z,99.50
2023-03-27T10:27:48.202Z,96.40
2023-03-27T10:30:36.092Z,97.80
2023-03-27T10:33:03.168Z,98.50
2023-03-27T10:35:36.990Z,99.50
2023-03-27T10:38:10.741Z,99.90
2023-03-27T10:40:39.769Z,99.90
2023-03-27T10:43:16.821Z,99.90
2023-03-27T10:46:05.086Z,99.10
2023-03-27T10:48:45.365Z,99.90
2023-03-27T10:51:28.398Z,99.90
2023-03-27T10:54:26.780Z,97.80
2023-03-27T10:57:00.284Z,98.70
2023-03-27T10:59:41.782Z,98.40
2023-03-27T11:02:29.425Z,99.40
2023-03-27T11:05:02.422Z,97.20
2023-03-27T11:07:37.879Z,97.00
2023-03-27T11:10:23.855Z,95.10
2023-03-27T11:13:01.868Z,94.50
2023-03-27T11:15:41.436Z,93.90
2023-03-27T11:18:32.860Z,94.80
2023-03-27T11:21:12.948Z,96.30
2023-03-27T11:23:58.386Z,97.30
2023-03-27T11:26:32.523Z,99.60
2023-03-27T11:29:23.079Z,96.90
2023-03-27T11:31:53.400Z,94.80
2023-03-27T11:34:35.735Z,91.90
2023-03-27T11:37:26.818Z,90.90
2023-03-27T11:40:02.989Z,91.90
2023-03-27T11:42:33.107Z,93.70
2023-03-27T11:45:04.535Z,93.60
2023-03-27T11:47:54.294Z,93.70
2023-03-27T11:50:40.199Z,92.30
2023-03-27T11:53:27.370Z,91.00
2023-03-27T11:56:10.393Z,93.20
2023-03-27T11:58:47.316Z,95.40
2023-03-27T12:01:39.811Z,97.70
2023-03-27T12:04:37.119Z,97.40
2023-03-27T12:07:59.177Z,96.40
2023-03-27T12:10:35.060Z,95.90
2023-03-27T12:13:34.828Z,96.10
2023-03-27T12:16:17.633Z,96.70
2023-03-27T12:19:28.323Z,99.90
2023-03-27T12:22:34.730Z,99.90
2023-03-27T12:25:20.754Z,99.90
2023-03-27T12:27:47.756Z,99.90
2023-03-27T12:30:31.496Z,99.90
2023-03-27T12:33:39.866Z,99.90
2023-03-27T12:36:10.912Z,99.90
2023-03-27T12:38:41.891Z,99.90
2023-03-27T12:41:09.304Z,99.90
2023-03-27T12:43:41.274Z,99.90
2023-03-27T12:46:31.807Z,99.90
2023-03-27T12:49:08.111Z,99.90
2023-03-27T12:51:53.943Z,99.90
2023-03-27T12:54:36.344Z,99.90
2023-03-27T12:57:13.141Z,99.90
2023-03-27T12:59:51.347Z,99.90
2023-03-27T13:02:56.417Z,99.90
2023-03-27T13:05:59.645Z,99.90
2023-03-27T13:08:43.081Z,99.90
2023-03-27T13:11:14.644Z,99.90
2023-03-27T13:14:04.876Z,99.90
2023-03-27T13:16:47.190Z,99.90
2023-03-27T13:19:50.775Z,99.90
2023-03-27T13:22:29.423Z,99.90
2023-03-27T13:25:08.692Z,99.90
2023-03-27T13:28:13.200Z,98.30
2023-03-27T13:30:57.212Z,97.90
2023-03-27T13:33:29.036Z,97.90
2023-03-27T13:36:02.943Z,96.60
2023-03-27T13:39:08.699Z,96.60
2023-03-27T13:41:44.225Z,94.60
2023-03-27T13:44:39.665Z,95.40
2023-03-27T13:47:33.801Z,95.10
2023-03-27T13:50:14.142Z,96.50
2023-03-27T13:53:01.127Z,98.00
2023-03-27T13:56:05.625Z,97.40
2023-03-27T13:58:47.160Z,97.80
2023-03-27T14:02:12.970Z,98.80
2023-03-27T14:05:02.159Z,99.90
2023-03-27T14:07:58.588Z,99.90
2023-03-27T14:10:37.338Z,99.90
2023-03-27T14:13:26.782Z,99.90
2023-03-27T14:16:24.857Z,99.90
2023-03-27T14:18:52.124Z,99.90
2023-03-27T14:21:35.476Z,99.90
2023-03-27T14:24:38.425Z,99.90
2023-03-27T14:27:10.775Z,99.90
2023-03-27T14:29:38.182Z,99.90
2023-03-27T14:32:07.373Z,99.90
2023-03-27T14:34:43.530Z,99.90
2023-03-27T14:37:30.979Z,99.90
2023-03-27T14:39:59.612Z,99.90
2023-03-27T14:42:31.941Z,99.90
2023-03-27T14:45:20.654Z,99.90
2023-03-27T14:47:55.827Z,99.90
2023-03-27T14:50:24.830Z,99.90
2023-03-27T14:52:53.925Z,99.90
2023-03-27T14:55:23.784Z,99.90
2023-03-27T14:57:55.059Z,99.90
2023-03-27T15:00:24.603Z,99.90
2023-03-27T15:02:54.898Z,99.90
2023-03-27T15:05:23.198Z,99.90
2023-03-27T15:07:51.725Z,99.90
2023-03-27T15:10:26.440Z,99.90
2023-03-27T15:12:54.809Z,99.90
2023-03-27T15:15:40.065Z,99.90
2023-03-27T15:18:13.298Z,99.90
2023-03-27T15:20:41.223Z,98.20
2023-03-27T15:23:22.510Z,98.50
2023-03-27T15:26:15.382Z,98.10
2023-03-27T15:29:07.764Z,98.30
2023-03-27T15:31:36.382Z,99.20
2023-03-27T15:34:03.597Z,99.70
2023-03-27T15:36:34.387Z,99.90
2023-03-27T15:39:04.171Z,99.90
2023-03-27T15:41:35.168Z,99.90
2023-03-27T15:44:09.275Z,99.90
2023-03-27T15:46:56.483Z,99.90
2023-03-27T15:49:26.023Z,99.90
2023-03-27T15:51:53.173Z,99.90
2023-03-27T15:54:32.707Z,99.90
2023-03-27T15:57:15.037Z,99.90
2023-03-27T15:59:52.755Z,99.90
2023-03-27T16:02:22.435Z,99.90
2023-03-27T16:04:57.728Z,99.90
2023-03-27T16:07:32.840Z,99.90
2023-03-27T16:10:02.701Z,99.90
2023-03-27T16:12:56.706Z,99.90
2023-03-27T16:15:43.802Z,99.90
2023-03-27T16:18:31.134Z,99.90
2023-03-27T16:21:10.072Z,99.90
2023-03-27T16:23:37.541Z,99.90
2023-03-27T16:26:09.574Z,99.90
2023-03-27T16:28:36.768Z,99.90
2023-03-27T16:31:12.263Z,99.90
2023-03-27T16:33:42.928Z,99.90
2023-03-27T16:36:30.479Z,99.90
2023-03-27T16:38:57.520Z,99.90
2023-03-27T16:41:24.445Z,99.90
2023-03-27T16:43:51.431Z,99.90
2023-03-27T16:46:23.951Z,99.90
2023-03-27T16:48:52.574Z,99.90
2023-03-27T16:51:21.037Z,99.90
2023-03-27T16:53:48.073Z,99.90
2023-03-27T16:56:15.138Z,99.90
2023-03-27T16:58:43.082Z,99.90
2023-03-27T17:01:10.483Z,99.90
2023-03-27T17:03:37.563Z,99.90
2023-03-27T17:06:07.158Z,99.90
2023-03-27T17:08:34.503Z,99.90
2023-03-27T17:11:03.948Z,99.90
2023-03-27T17:13:31.784Z,99.90
2023-03-27T17:15:59.026Z,99.90
2023-03-27T17:18:26.657Z,99.90
2023-03-27T17:20:53.774Z,99.90
2023-03-27T17:23:20.854Z,99.90
2023-03-27T17:25:48.570Z,99.90
2023-03-27T17:28:16.200Z,99.90
2023-03-27T17:30:56.778Z,99.90
2023-03-27T17:33:30.996Z,99.90
2023-03-27T17:35:58.174Z,99.90
2023-03-27T17:38:25.474Z,99.90
2023-03-27T17:40:52.605Z,99.90
2023-03-27T17:43:19.867Z,99.90
2023-03-27T17:45:48.048Z,99.90
2023-03-27T17:48:14.965Z,99.90
2023-03-27T17:50:41.955Z,99.90
2023-03-27T17:53:08.999Z,99.90
2023-03-27T17:55:39.141Z,99.90
2023-03-27T17:58:09.975Z,99.90
2023-03-27T18:00:41.596Z,99.90
2023-03-27T18:03:09.141Z,99.90
2023-03-27T18:05:41.512Z,99.90
2023-03-27T18:08:11.014Z,99.90
2023-03-27T18:10:44.147Z,99.90
2023-03-27T18:13:11.969Z,99.90
2023-03-27T18:15:40.908Z,99.90
2023-03-27T18:18:08.050Z,99.90
2023-03-27T18:20:35.415Z,99.90
2023-03-27T18:23:02.877Z,99.90
2023-03-27T18:25:30.447Z,99.90
2023-03-27T18:27:57.445Z,99.90
2023-03-27T18:30:24.585Z,99.90
2023-03-27T18:32:51.622Z,99.90
2023-03-27T18:35:20.477Z,99.90
2023-03-27T18:37:47.680Z,99.90
2023-03-27T18:40:16.763Z,99.90
2023-03-27T18:42:46.139Z,99.90
2023-03-27T18:45:15.278Z,99.90
2023-03-27T18:47:43.263Z,99.90
2023-03-27T18:50:14.815Z,99.90
2023-03-27T18:52:42.145Z,99.90
2023-03-27T18:55:10.099Z,99.90
2023-03-27T18:57:38.082Z,99.90
2023-03-27T19:00:08.874Z,99.90
2023-03-27T19:02:36.769Z,99.90
2023-03-27T19:05:04.512Z,99.90
2023-03-27T19:07:31.592Z,99.90
2023-03-27T19:09:58.950Z,99.90
2023-03-27T19:12:26.211Z,99.90
2023-03-27T19:14:53.280Z,99.90
2023-03-27T19:17:21.150Z,99.90
2023-03-27T19:19:48.245Z,99.90
2023-03-27T19:22:15.375Z,99.90
2023-03-27T19:24:42.883Z,99.90
2023-03-27T19:27:24.261Z,99.90
2023-03-27T19:29:52.392Z,99.90
2023-03-27T19:32:19.526Z,99.90
2023-03-27T19:34:47.347Z,99.90
2023-03-27T19:37:14.378Z,99.90
2023-03-27T19:39:41.375Z,99.90
2023-03-27T19:42:08.404Z,99.90
2023-03-27T19:44:35.355Z,99.90
2023-03-27T19:47:03.771Z,99.90
2023-03-27T19:49:30.954Z,99.90
2023-03-27T19:51:57.962Z,99.90
2023-03-27T19:54:24.917Z,99.90
2023-03-27T19:56:53.269Z,99.90
2023-03-27T19:59:29.830Z,99.90
2023-03-27T20:01:59.226Z,99.90
2023-03-27T20:04:26.316Z,99.90
2023-03-27T20:06:53.931Z,99.90
2023-03-27T20:09:21.033Z,99.90
2023-03-27T20:11:47.970Z,99.90
2023-03-27T20:14:15.013Z,99.90
2023-03-27T20:16:42.061Z,99.90
2023-03-27T20:19:09.482Z,99.90
2023-03-27T20:21:40.715Z,99.90
2023-03-27T20:24:10.234Z,99.90
2023-03-27T20:26:39.401Z,99.90
2023-03-27T20:29:14.016Z,99.90
2023-03-27T20:31:41.327Z,99.90
2023-03-27T20:34:09.578Z,99.90
2023-03-27T20:36:39.183Z,99.90
2023-03-27T20:39:07.970Z,99.90
2023-03-27T20:41:39.382Z,99.90
2023-03-27T20:44:15.293Z,99.90
2023-03-27T20:46:51.704Z,99.90
2023-03-27T20:51:57.313Z,99.90
2023-03-27T20:54:24.225Z,99.90
2023-03-27T20:56:51.513Z,99.90
2023-03-27T20:59:18.628Z,99.90
2023-03-27T21:01:45.838Z,99.90
2023-03-27T21:04:14.425Z,99.90
2023-03-27T21:06:42.596Z,99.90
2023-03-27T21:09:13.795Z,99.90
2023-03-27T21:11:40.998Z,99.90
2023-03-27T21:14:07.945Z,99.90
2023-03-27T21:16:35.203Z,99.90
2023-03-27T21:19:02.243Z,99.90
2023-03-27T21:21:29.219Z,99.90
2023-03-27T21:23:56.419Z,99.90
2023-03-27T21:26:23.356Z,99.90
2023-03-27T21:28:53.633Z,99.90
2023-03-27T21:31:21.484Z,99.90
2023-03-27T21:33:48.428Z,99.90
2023-03-27T21:36:15.845Z,99.90
2023-03-27T21:38:42.978Z,99.90
2023-03-27T21:41:14.267Z,99.90
2023-03-27T21:43:41.307Z,99.90
2023-03-27T21:46:08.400Z,99.90
2023-03-27T21:48:35.454Z,99.90
2023-03-27T21:51:04.339Z,99.90
2023-03-27T21:53:31.648Z,99.90
2023-03-27T21:55:58.882Z,99.90
2023-03-27T21:58:26.142Z,99.90
2023-03-27T22:00:56.545Z,99.90
2023-03-27T22:03:24.725Z,99.90
2023-03-27T22:06:07.836Z,99.90
2023-03-27T22:08:38.928Z,99.90
2023-03-27T22:11:06.955Z,99.90
2023-03-27T22:13:38.314Z,99.90
2023-03-27T22:16:14.751Z,99.90
2023-03-27T22:18:42.294Z,99.90
2023-03-27T22:21:30.970Z,99.90
2023-03-27T22:23:58.869Z,99.90
2023-03-27T22:26:38.046Z,99.90
2023-03-27T22:29:08.005Z,99.90
2023-03-27T22:31:38.047Z,99.90
2023-03-27T22:34:08.110Z,99.90
2023-03-27T22:36:35.196Z,99.90
2023-03-27T22:39:05.792Z,99.90
2023-03-27T22:41:34.739Z,99.90
2023-03-27T22:44:03.138Z,99.90
2023-03-27T22:46:32.472Z,99.90
2023-03-27T22:48:59.821Z,99.90
2023-03-27T22:51:29.857Z,99.90
2023-03-27T22:53:57.204Z,99.90
2023-03-27T22:56:24.470Z,99.90
2023-03-27T22:58:51.530Z,99.90
2023-03-27T23:01:20.078Z,99.90
2023-03-27T23:03:47.351Z,99.90
2023-03-27T23:06:22.792Z,99.90
2023-03-27T23:08:50.967Z,99.90
2023-03-27T23:11:19.201Z,99.90
2023-03-27T23:13:46.271Z,99.90
2023-03-27T23:16:13.343Z,99.90
2023-03-27T23:18:40.422Z,99.90
2023-03-27T23:21:10.826Z,99.90
2023-03-27T23:23:40.567Z,99.90
2023-03-27T23:26:08.645Z,99.90
2023-03-27T23:28:38.262Z,99.90
2023-03-27T23:31:07.882Z,99.90
2023-03-27T23:33:40.775Z,99.90
2023-03-27T23:36:10.520Z,99.90
2023-03-27T23:38:38.158Z,99.90
2023-03-27T23:41:06.541Z,99.90
2023-03-27T23:43:33.963Z,99.90
2023-03-27T23:46:01.256Z,99.90
2023-03-27T23:48:29.748Z,99.90
2023-03-27T23:50:57.911Z,99.90
2023-03-27T23:53:26.700Z,99.90
2023-03-27T23:55:56.248Z,99.90
2023-03-27T23:58:24.544Z,99.90
